createdAt,value
2019-04-12T00:08:10.971Z,17.8
2019-04-12T00:24:55.376Z,17.8
2019-04-12T00:41:39.779Z,17.8
2019-04-12T00:58:23.989Z,17.8
2019-04-12T01:15:08.158Z,17.8
2019-04-12T01:31:52.256Z,17.4
2019-04-12T01:48:36.374Z,17.4
2019-04-12T02:05:20.510Z,17.4
2019-04-12T02:22:04.354Z,17.4
2019-04-12T02:38:48.388Z,17.4
2019-04-12T02:55:37.752Z,17.4
2019-04-12T03:12:16.247Z,17.4
2019-04-12T03:29:00.123Z,17.4
2019-04-12T03:45:44.972Z,17.1
2019-04-12T04:02:27.736Z,17.1
2019-04-12T04:19:11.468Z,17.1
2019-04-12T04:35:55.212Z,17.1
2019-04-12T04:52:38.709Z,17.1
2019-04-12T05:09:22.327Z,17.1
2019-04-12T05:26:06.049Z,17.1
2019-04-12T05:42:49.792Z,17.1
2019-04-12T05:59:33.560Z,17.4
2019-04-12T06:16:17.378Z,17.1
2019-04-12T06:33:01.212Z,17.1
2019-04-12T06:49:45.584Z,17.1
2019-04-12T07:06:28.653Z,17.4
2019-04-12T07:23:12.465Z,17.4
2019-04-12T07:39:56.713Z,17.8
2019-04-12T07:56:41.542Z,17.8
2019-04-12T08:13:25.883Z,17.8
2019-04-12T08:30:10.474Z,17.8
2019-04-12T08:46:54.994Z,18.1
2019-04-12T09:03:39.761Z,18.1
2019-04-12T09:20:24.672Z,18.1
2019-04-12T09:37:09.288Z,18.1
2019-04-12T09:53:54.244Z,18.4
2019-04-12T10:10:39.566Z,18.7
2019-04-12T10:27:27.846Z,18.7
2019-04-12T10:44:10.535Z,18.7
2019-04-12T11:00:56.349Z,18.7
2019-04-12T11:17:42.003Z,18.7
2019-04-12T11:34:28.238Z,19.0
2019-04-12T11:51:13.498Z,19.0
2019-04-12T12:07:59.430Z,19.0
2019-04-12T12:24:45.523Z,19.0
2019-04-12T12:41:32.226Z,19.4
2019-04-12T12:58:18.005Z,19.4
2019-04-12T13:15:05.333Z,19.4
2019-04-12T13:31:51.345Z,19.7
2019-04-12T13:48:37.286Z,19.7
2019-04-12T14:05:23.965Z,19.7
2019-04-12T14:22:10.705Z,19.7
2019-04-12T14:38:59.232Z,20.0
2019-04-12T14:55:45.486Z,20.0
2019-04-12T15:12:31.494Z,19.7
2019-04-12T15:29:18.395Z,19.7
2019-04-12T15:46:05.285Z,19.7
2019-04-12T16:02:52.759Z,19.7
2019-04-12T16:19:39.039Z,19.7
2019-04-12T16:36:25.810Z,19.7
2019-04-12T16:53:13.258Z,19.7
2019-04-12T17:09:59.549Z,19.7
2019-04-12T17:26:46.341Z,19.7
2019-04-12T17:43:33.082Z,19.4
2019-04-12T18:00:19.857Z,19.4
2019-04-12T18:17:07.069Z,19.4
2019-04-12T18:34:04.356Z,19.4
2019-04-12T18:42:16.579Z,19.0
2019-04-12T18:59:03.080Z,19.0
2019-04-12T19:15:49.664Z,19.0
2019-04-12T19:32:39.377Z,19.0
2019-04-12T19:49:22.298Z,19.0
2019-04-12T20:06:08.667Z,19.0
2019-04-12T20:22:54.054Z,19.0
2019-04-12T20:39:39.651Z,19.0
2019-04-12T20:56:25.232Z,19.0
2019-04-12T21:13:11.978Z,19.0
2019-04-12T21:29:59.257Z,19.0
2019-04-12T21:46:42.612Z,19.0
2019-04-12T22:03:40.030Z,19.0
2019-04-12T22:20:14.892Z,19.0
2019-04-12T22:37:00.194Z,19.0
2019-04-12T22:53:46.175Z,19.0
2019-04-12T23:10:32.232Z,19.0
2019-04-12T23:27:18.859Z,19.0
2019-04-12T23:44:03.788Z,19.0
